EFHA

Halli Airport

Halli / Kuorevesi, Finland
METAR EFHA 160520Z AUTO 09003KT 9999 OVC004 M08/M09 Q1033
Observed Flight Rules
Dec-16 @ 05:20 UTC (33 minutes ago) Instrument Flight Rules
Wind Visibility Clouds
90° at 3 knots 10,000+ meters
  • Overcast at 400' AGL
Temperatures Readings
Current -8°C / 18°F
Dewpoint -9°C / 16°F
Humidity 93%
Altimeter 30.5" Hg
Pressure 1033 hPa
Elevation 145
METAR EFHA 160520Z AUTO 09003KT 9999 OVC004 M08/M09 Q1033
Observed Flight Rules
Dec-16 @ 05:20 UTC
(33 minutes ago)
LIFR
Wind Visibility
90° at 3 knots 10,000+ meters
Clouds
  • Overcast at 400' AGL
Temperature Dewpoint
-8°C / 18°F -9°C / 16°F
Humidity Altimeter Pressure
93% 30.5" Hg 1033 hPa